Time;durP1;ratioP1;P1;durP2;ratioP2;P2;SDS_P1;SDS_P2;PMS_P1;PMS_P2;Temp;Humidity;BMP_temperature;BMP_pressure;BME280_temperature;BME280_humidity;BME280_pressure;Samples;Min_cycle;Max_cycle;Signal;HPM_P1;HPM_P2
2022/07/11 00:57:04;;;;;;;;;2.67;2.67;;;;;20.70;100.00;101785.50;4991685;28;45185;-88
2022/07/11 01:04:32;;;;;;;;;;;;;;;;;;;;;
2022/07/11 01:07:19;;;;;;;;;2.33;2.33;;;;;20.66;100.00;101792.66;4956286;28;46486;-89
2022/07/11 01:10:17;;;;;;;;;1.67;1.67;;;;;20.63;100.00;101794.84;4953655;28;45426;-87
2022/07/11 01:13:22;;;;;;;;;2.00;2.00;;;;;20.61;100.00;101797.03;4929760;28;45616;-83
2022/07/11 01:16:51;;;;;;;;;;;;;;;;;;;;;
2022/07/11 01:36:31;;;;;;;;;1.33;1.33;;;;;20.35;100.00;101786.50;5019153;22;45821;-72
2022/07/11 01:38:56;;;;;;;;;4.00;4.00;;;;;20.34;100.00;101784.81;5021213;28;45348;-73
2022/07/11 01:41:22;;;;;;;;;3.67;3.33;;;;;20.30;100.00;101803.97;5026592;28;45747;-74
2022/07/11 01:43:47;;;;;;;;;2.33;2.33;;;;;20.28;100.00;101793.09;5014112;28;46227;-72
2022/07/11 01:46:13;;;;;;;;;5.00;3.00;;;;;20.23;100.00;101779.03;5018858;28;45720;-73
2022/07/11 01:48:38;;;;;;;;;3.00;3.00;;;;;20.22;100.00;101794.03;5032194;28;45304;-73
2022/07/11 01:51:04;;;;;;;;;1.00;1.00;;;;;20.13;100.00;101772.44;5025843;28;45627;-71
2022/07/11 01:53:29;;;;;;;;;4.67;4.00;;;;;20.16;100.00;101789.47;5023390;28;45641;-71
2022/07/11 01:55:55;;;;;;;;;3.00;3.00;;;;;20.13;100.00;101789.97;5025877;28;45498;-71
2022/07/11 01:58:20;;;;;;;;;5.00;3.00;;;;;20.09;100.00;101788.81;5022972;28;45388;-72
2022/07/11 02:00:46;;;;;;;;;4.00;4.00;;;;;20.06;100.00;101795.69;4998218;28;45312;-71
2022/07/11 02:03:11;;;;;;;;;5.00;4.00;;;;;20.06;100.00;101792.03;4996062;28;46401;-72
2022/07/11 02:05:39;;;;;;;;;4.00;4.00;;;;;20.07;100.00;101793.75;5014269;28;45766;-72
2022/07/11 02:08:13;;;;;;;;;4.67;3.67;;;;;20.04;100.00;101792.28;5024028;28;45843;-72
2022/07/11 02:10:47;;;;;;;;;3.00;3.00;;;;;20.03;100.00;101792.53;5014941;28;45687;-72
2022/07/11 02:13:14;;;;;;;;;3.00;3.00;;;;;20.02;100.00;101788.09;5024118;28;46400;-71
2022/07/11 02:15:41;;;;;;;;;3.00;3.00;;;;;19.99;100.00;101788.59;5024903;28;45433;-73
2022/07/11 02:18:07;;;;;;;;;6.67;5.00;;;;;19.99;100.00;101789.41;5016009;28;45389;-72
2022/07/11 02:20:32;;;;;;;;;6.00;5.67;;;;;20.01;100.00;101794.75;5028250;28;45366;-71
2022/07/11 02:22:58;;;;;;;;;4.00;3.00;;;;;19.98;100.00;101786.88;5022334;28;46066;-71
2022/07/11 02:25:24;;;;;;;;;3.00;3.00;;;;;19.98;100.00;101787.72;5021000;28;45856;-73
2022/07/11 02:27:51;;;;;;;;;4.33;4.00;;;;;19.97;100.00;101787.97;5021743;28;45383;-73
2022/07/11 02:30:17;;;;;;;;;4.67;4.00;;;;;19.95;100.00;101787.38;5021549;28;45587;-71
2022/07/11 02:32:42;;;;;;;;;5.67;5.33;;;;;19.93;100.00;101785.69;5014386;28;45378;-72
2022/07/11 02:35:08;;;;;;;;;4.33;3.33;;;;;19.91;100.00;101787.00;5016968;28;45714;-72
2022/07/11 02:37:34;;;;;;;;;5.00;5.00;;;;;19.89;100.00;101781.69;5027635;28;45452;-72
2022/07/11 02:40:00;;;;;;;;;6.67;5.67;;;;;19.87;100.00;101783.03;5025707;28;45393;-72
2022/07/11 02:42:25;;;;;;;;;6.00;4.67;;;;;19.88;100.00;101785.59;5013450;28;45770;-73
2022/07/11 02:44:50;;;;;;;;;6.00;5.00;;;;;19.85;100.00;101782.44;5013059;28;45743;-73
2022/07/11 02:47:16;;;;;;;;;5.67;5.00;;;;;19.83;100.00;101787.41;5022774;28;45677;-72
2022/07/11 02:49:42;;;;;;;;;5.67;4.67;;;;;19.81;100.00;101790.44;5017836;28;45693;-72
2022/07/11 02:52:08;;;;;;;;;6.67;5.67;;;;;19.80;100.00;101790.69;5013567;28;46346;-73
2022/07/11 02:54:33;;;;;;;;;7.33;6.67;;;;;19.78;100.00;101784.53;5013218;28;45362;-72
2022/07/11 02:56:59;;;;;;;;;9.33;7.00;;;;;19.75;100.00;101783.88;5026662;28;45313;-73
2022/07/11 02:59:24;;;;;;;;;9.33;7.00;;;;;19.75;100.00;101788.59;5013115;28;45781;-73
2022/07/11 03:01:50;;;;;;;;;11.00;8.67;;;;;19.72;100.00;101780.75;5014610;28;46694;-73
2022/07/11 03:04:16;;;;;;;;;8.00;8.00;;;;;19.70;100.00;101775.44;5023662;28;45698;-72
2022/07/11 03:06:42;;;;;;;;;8.00;7.67;;;;;19.67;100.00;101772.25;5005167;28;45387;-72
2022/07/11 03:09:09;;;;;;;;;9.00;8.00;;;;;19.64;100.00;101773.63;5031659;28;45795;-72
2022/07/11 03:11:34;;;;;;;;;8.00;8.00;;;;;19.61;100.00;101771.34;5022932;28;45688;-71
2022/07/11 03:14:00;;;;;;;;;9.00;6.00;;;;;19.60;100.00;101769.63;5017436;28;45755;-73
2022/07/11 03:16:27;;;;;;;;;10.33;8.67;;;;;19.57;100.00;101768.19;5015965;28;45890;-71
2022/07/11 03:18:52;;;;;;;;;7.33;5.00;;;;;19.58;100.00;101774.56;5012192;28;45887;-70
2022/07/11 03:21:18;;;;;;;;;7.33;5.00;;;;;19.55;100.00;101777.84;5020608;28;46251;-70
2022/07/11 03:23:43;;;;;;;;;4.00;4.00;;;;;19.52;100.00;101773.63;5016738;28;46676;-70
2022/07/11 03:26:08;;;;;;;;;5.67;4.67;;;;;19.51;100.00;101779.44;5012138;28;45603;-69
2022/07/11 03:28:34;;;;;;;;;4.33;4.00;;;;;19.51;100.00;101782.22;5017590;28;45569;-70
2022/07/11 03:30:59;;;;;;;;;7.00;6.00;;;;;19.48;100.00;101779.94;5011819;28;45588;-70
2022/07/11 03:33:25;;;;;;;;;5.00;5.00;;;;;19.44;100.00;101779.56;5014957;28;45326;-70
2022/07/11 03:35:50;;;;;;;;;6.00;5.67;;;;;19.44;100.00;101782.34;5011466;28;45565;-70
2022/07/11 03:38:20;;;;;;;;;5.00;5.00;;;;;19.43;100.00;101782.59;5017332;28;45649;-71
2022/07/11 03:40:47;;;;;;;;;9.00;6.67;;;;;19.44;100.00;101787.91;5012216;28;46389;-72
2022/07/11 03:43:12;;;;;;;;;7.67;6.67;;;;;19.40;100.00;101779.22;5012300;28;45469;-71
2022/07/11 03:45:37;;;;;;;;;9.67;8.33;;;;;19.40;100.00;101786.69;5022421;28;45374;-70
2022/07/11 03:48:04;;;;;;;;;8.33;7.00;;;;;19.43;100.00;101785.38;5031896;28;45523;-70
2022/07/11 03:50:32;;;;;;;;;9.00;7.00;;;;;19.43;100.00;101780.66;5036044;28;45413;-71
2022/07/11 03:52:58;;;;;;;;;9.67;8.00;;;;;19.43;100.00;101774.25;5031500;28;46032;-70
2022/07/11 03:55:24;;;;;;;;;7.00;5.67;;;;;19.43;100.00;101785.38;5024742;28;45412;-72
2022/07/11 03:57:50;;;;;;;;;4.67;3.33;;;;;19.45;100.00;101789.59;5027111;28;45729;-71
2022/07/11 04:00:16;;;;;;;;;4.67;4.67;;;;;19.44;100.00;101781.50;5020999;28;46083;-72
2022/07/11 04:02:42;;;;;;;;;3.00;3.00;;;;;19.46;100.00;101782.09;5025649;28;45792;-72
2022/07/11 04:05:07;;;;;;;;;4.33;4.00;;;;;19.51;100.00;101777.50;5029920;28;45615;-71
2022/07/11 04:07:33;;;;;;;;;3.00;3.00;;;;;19.66;100.00;101781.72;5023958;28;45606;-73
2022/07/11 04:09:58;;;;;;;;;4.00;4.00;;;;;19.83;100.00;101782.66;5024274;28;45906;-72
2022/07/11 04:12:24;;;;;;;;;6.00;5.00;;;;;20.04;100.00;101775.59;5018758;28;45727;-72
2022/07/11 04:14:50;;;;;;;;;4.33;4.00;;;;;20.29;100.00;101780.00;5023441;28;45490;-71
2022/07/11 04:17:15;;;;;;;;;4.67;4.67;;;;;20.49;100.00;101773.09;5027137;28;45319;-72
2022/07/11 04:19:42;;;;;;;;;4.00;4.00;;;;;20.73;100.00;101779.41;5012908;28;45674;-72
2022/07/11 04:22:08;;;;;;;;;5.00;5.00;;;;;20.93;100.00;101776.16;5012069;28;45382;-71
2022/07/11 04:24:34;;;;;;;;;4.33;4.00;;;;;21.21;100.00;101777.13;5012106;28;45501;-73
2022/07/11 04:26:59;;;;;;;;;7.00;6.00;;;;;21.50;100.00;101781.53;5013630;28;45498;-73
2022/07/11 04:29:30;;;;;;;;;7.00;5.00;;;;;21.84;100.00;101783.34;5012166;28;46284;-73
2022/07/11 04:31:56;;;;;;;;;8.00;7.00;;;;;22.24;100.00;101779.38;5004486;28;45837;-72
2022/07/11 04:34:21;;;;;;;;;11.33;9.00;;;;;22.64;100.00;101780.09;5018078;28;45576;-71
2022/07/11 04:36:47;;;;;;;;;5.33;5.33;;;;;23.07;100.00;101786.63;5019774;28;45582;-72
2022/07/11 04:39:12;;;;;;;;;7.00;7.00;;;;;23.51;100.00;101791.16;5025082;28;45755;-73
2022/07/11 04:41:38;;;;;;;;;7.33;7.00;;;;;23.96;100.00;101787.75;5014233;28;45358;-78
2022/07/11 04:44:04;;;;;;;;;6.67;5.67;;;;;24.42;100.00;101781.47;5020654;28;45898;-72
2022/07/11 04:46:29;;;;;;;;;5.33;4.00;;;;;24.89;100.00;101787.16;5035448;28;45834;-72
2022/07/11 04:48:55;;;;;;;;;5.33;5.33;;;;;25.20;100.00;101779.56;5029798;28;47134;-72
2022/07/11 04:51:21;;;;;;;;;6.33;5.67;;;;;25.48;100.00;101783.75;5018038;28;45633;-73
2022/07/11 04:53:46;;;;;;;;;5.33;4.33;;;;;25.83;100.00;101784.75;5007274;28;45544;-73
2022/07/11 04:56:12;;;;;;;;;4.33;4.33;;;;;26.18;100.00;101788.56;5016880;28;45830;-71
2022/07/11 04:58:38;;;;;;;;;6.00;5.00;;;;;26.56;98.14;101783.25;5013566;28;45998;-71
2022/07/11 05:01:04;;;;;;;;;4.00;4.00;;;;;26.87;95.01;101790.66;5016033;28;45529;-71
2022/07/11 05:03:29;;;;;;;;;4.33;4.33;;;;;27.22;91.87;101789.50;5018408;28;45399;-70
2022/07/11 05:05:55;;;;;;;;;3.00;3.00;;;;;27.69;88.96;101794.69;5012300;28;45896;-73
2022/07/11 05:08:21;;;;;;;;;7.00;4.00;;;;;28.18;85.00;101794.34;5014647;28;45806;-74
2022/07/11 05:10:47;;;;;;;;;5.00;4.00;;;;;28.53;81.07;101791.31;5019680;28;45840;-73
2022/07/11 05:13:13;;;;;;;;;4.00;2.00;;;;;29.13;77.70;101801.09;5025376;28;45576;-73
2022/07/11 05:15:39;;;;;;;;;5.00;4.00;;;;;29.69;72.23;101804.91;5015259;28;45744;-75
2022/07/11 05:18:05;;;;;;;;;6.00;4.00;;;;;30.25;67.06;101808.53;5023752;28;46125;-70
2022/07/11 05:20:30;;;;;;;;;5.00;3.25;;;;;30.70;62.96;101816.31;5023639;28;45584;-70
2022/07/11 05:22:57;;;;;;;;;5.33;4.67;;;;;31.10;59.82;101807.97;4999961;28;45939;-66
2022/07/11 05:25:22;;;;;;;;;2.00;2.00;;;;;31.52;57.16;101808.53;5018855;28;45434;-76
2022/07/11 05:27:48;;;;;;;;;3.00;3.00;;;;;31.97;54.08;101807.56;5015609;28;46034;-73
2022/07/11 05:30:13;;;;;;;;;3.67;3.67;;;;;32.34;52.12;101811.00;5015177;28;45807;-73
2022/07/11 05:32:38;;;;;;;;;3.25;3.25;;;;;32.78;49.77;101805.38;5016758;28;45849;-79
2022/07/11 05:35:04;;;;;;;;;3.25;3.25;;;;;33.17;47.48;101809.97;5022585;28;45805;-77
2022/07/11 05:37:30;;;;;;;;;3.00;3.00;;;;;33.48;45.85;101810.94;5015556;28;46126;-75
2022/07/11 05:39:55;;;;;;;;;2.75;2.75;;;;;33.70;44.26;101815.50;5027506;28;45655;-75
2022/07/11 05:42:21;;;;;;;;;3.50;2.75;;;;;33.92;43.28;101815.28;5016950;28;45664;-77
2022/07/11 05:44:49;;;;;;;;;3.00;2.00;;;;;34.06;42.23;101815.03;5017986;28;45452;-78
2022/07/11 05:47:14;;;;;;;;;3.00;3.00;;;;;34.32;42.03;101813.22;5014394;28;45676;-77
2022/07/11 05:49:40;;;;;;;;;3.00;3.00;;;;;34.52;40.77;101806.69;5019422;28;45371;-72
2022/07/11 05:52:05;;;;;;;;;2.25;2.25;;;;;34.78;39.94;101805.69;5017706;28;45463;-75
2022/07/11 05:54:31;;;;;;;;;3.50;3.50;;;;;34.98;39.46;101809.66;5016561;28;45511;-73
2022/07/11 05:56:56;;;;;;;;;3.50;3.50;;;;;35.24;38.25;101806.53;5021247;28;46581;-77
2022/07/11 05:59:22;;;;;;;;;3.25;2.50;;;;;35.45;37.18;101803.66;5016449;28;45489;-76
2022/07/11 06:01:48;;;;;;;;;2.25;1.75;;;;;35.49;37.12;101798.88;5015662;28;45718;-77
2022/07/11 06:04:13;;;;;;;;;3.25;3.25;;;;;35.62;36.70;101801.75;5031157;28;46344;-77
2022/07/11 06:06:40;;;;;;;;;3.00;3.00;;;;;35.68;36.54;101804.00;5026820;28;47064;-78
2022/07/11 06:09:05;;;;;;;;;7.00;5.75;;;;;35.84;35.79;101809.03;5021469;28;45381;-75
2022/07/11 06:11:31;;;;;;;;;2.00;1.00;;;;;35.98;35.73;101795.22;5029008;28;45453;-76
2022/07/11 06:13:57;;;;;;;;;3.50;3.00;;;;;36.17;35.47;101806.03;5028830;28;45668;-77
2022/07/11 06:16:23;;;;;;;;;2.50;2.00;;;;;36.58;35.25;101795.47;5022707;28;45725;-74
2022/07/11 06:18:48;;;;;;;;;2.75;2.75;;;;;37.24;34.17;101803.91;5028915;28;45371;-72
2022/07/11 06:21:14;;;;;;;;;4.00;3.50;;;;;37.68;32.89;101808.72;5033709;28;45654;-74
2022/07/11 06:23:42;;;;;;;;;2.25;2.00;;;;;38.09;31.86;101813.03;5018725;28;45826;-75
2022/07/11 06:26:07;;;;;;;;;4.00;2.25;;;;;38.38;31.27;101816.59;5013805;28;45710;-75
2022/07/11 06:28:33;;;;;;;;;3.00;3.00;;;;;38.62;31.00;101814.66;5015577;28;45587;-76
2022/07/11 06:31:00;;;;;;;;;3.75;3.75;;;;;38.68;30.68;101818.91;5029669;28;45808;-77
2022/07/11 06:33:26;;;;;;;;;5.00;4.00;;;;;38.74;30.10;101805.91;5014226;28;45429;-76
2022/07/11 06:35:51;;;;;;;;;2.00;2.00;;;;;38.73;29.98;101818.63;5029155;28;47836;-77
2022/07/11 06:38:17;;;;;;;;;3.25;3.25;;;;;38.79;29.72;101807.63;5020327;28;45529;-77
2022/07/11 06:40:43;;;;;;;;;1.75;1.75;;;;;38.80;29.94;101809.31;5032889;28;45457;-78
2022/07/11 06:43:11;;;;;;;;;2.00;2.00;;;;;38.81;29.93;101799.50;5032586;28;45527;-77
2022/07/11 06:45:38;;;;;;;;;2.00;2.00;;;;;39.11;29.16;101796.03;5029225;28;45595;-80
2022/07/11 06:48:04;;;;;;;;;3.00;3.00;;;;;39.34;29.02;101813.25;5013528;28;45426;-80
2022/07/11 06:50:30;;;;;;;;;4.50;4.50;;;;;39.59;28.41;101801.41;5020181;28;45769;-80
2022/07/11 06:52:55;;;;;;;;;5.75;3.00;;;;;40.16;28.01;101802.31;5013664;28;45659;-82
2022/07/11 06:55:21;;;;;;;;;4.00;3.00;;;;;40.62;27.37;101804.22;5012841;28;45904;-81
2022/07/11 06:57:46;;;;;;;;;3.00;2.25;;;;;40.92;26.61;101800.50;5021396;28;45311;-74
2022/07/11 07:00:12;;;;;;;;;4.25;2.75;;;;;41.01;26.37;101797.31;5015839;28;45823;-72
2022/07/11 07:02:38;;;;;;;;;1.50;1.25;;;;;41.08;26.11;101801.06;5028378;28;45474;-71
2022/07/11 07:05:07;;;;;;;;;2.67;2.67;;;;;41.54;25.57;101799.88;5019808;28;46182;-73
2022/07/11 07:07:32;;;;;;;;;4.00;2.25;;;;;42.02;25.35;101796.13;5023335;28;45659;-71
2022/07/11 07:09:58;;;;;;;;;2.00;2.00;;;;;42.14;24.52;101792.91;5025404;28;45552;-72
2022/07/11 07:12:23;;;;;;;;;3.00;3.00;;;;;42.18;24.61;101792.97;5012698;28;45292;-71
2022/07/11 07:14:49;;;;;;;;;4.00;3.00;;;;;42.25;24.02;101810.31;5024432;28;45349;-78
2022/07/11 07:17:15;;;;;;;;;2.75;2.25;;;;;42.24;24.11;101802.88;5021950;28;45615;-79
2022/07/11 07:19:41;;;;;;;;;2.00;2.00;;;;;42.34;24.03;101809.97;5021766;28;45344;-79
2022/07/11 07:22:06;;;;;;;;;2.00;2.00;;;;;42.26;24.34;101806.19;5031185;28;45310;-78
2022/07/11 07:24:36;;;;;;;;;3.00;3.00;;;;;42.30;24.09;101809.91;5016084;28;46124;-80
2022/07/11 07:27:02;;;;;;;;;3.25;3.00;;;;;42.37;23.82;101803.38;5019183;28;45665;-78
2022/07/11 07:29:28;;;;;;;;;4.00;4.00;;;;;42.49;23.67;101803.03;5022434;28;45682;-79
2022/07/11 07:31:54;;;;;;;;;2.00;2.00;;;;;42.67;23.51;101797.34;5018369;28;45705;-80
2022/07/11 07:34:20;;;;;;;;;2.00;2.00;;;;;42.70;23.41;101792.84;5014099;28;45682;-78
2022/07/11 07:36:45;;;;;;;;;3.00;3.00;;;;;42.65;23.33;101799.81;5012952;28;45683;-79
2022/07/11 07:39:11;;;;;;;;;2.50;2.50;;;;;42.58;23.70;101808.44;5031217;28;45676;-77
2022/07/11 07:41:36;;;;;;;;;2.00;2.00;;;;;42.69;23.08;101800.63;5031621;28;45662;-78
2022/07/11 07:44:02;;;;;;;;;2.75;2.75;;;;;42.77;22.59;101806.44;5032341;28;45730;-77
2022/07/11 07:46:28;;;;;;;;;3.50;3.00;;;;;42.59;22.83;101807.19;5032622;28;45305;-77
2022/07/11 07:48:54;;;;;;;;;2.00;2.00;;;;;42.72;23.12;101801.06;5029588;28;45587;-78
2022/07/11 07:51:21;;;;;;;;;2.00;2.00;;;;;42.68;22.42;101792.41;5017175;28;45797;-78
2022/07/11 07:53:47;;;;;;;;;2.00;2.00;;;;;42.78;22.88;101793.69;5032469;28;45458;-78
2022/07/11 07:56:12;;;;;;;;;2.25;1.00;;;;;42.91;22.54;101803.59;5021035;28;45774;-78
2022/07/11 07:58:38;;;;;;;;;2.75;2.75;;;;;43.01;22.39;101790.44;5019143;28;45397;-78
2022/07/11 08:03:48;;;;;;;;;2.00;2.00;;;;;43.32;21.85;101803.28;5026939;28;45613;-79
2022/07/11 08:06:14;;;;;;;;;2.00;2.00;;;;;43.37;21.45;101802.88;5018044;28;45678;-78
2022/07/11 08:08:39;;;;;;;;;3.00;2.25;;;;;43.28;21.28;101802.44;5027900;28;45860;-78
2022/07/11 08:11:05;;;;;;;;;3.00;3.00;;;;;43.33;21.37;101804.94;5038664;28;46860;-78
2022/07/11 08:13:30;;;;;;;;;1.75;1.75;;;;;43.11;21.19;101803.25;5030965;28;46513;-77
2022/07/11 08:15:56;;;;;;;;;1.00;1.00;;;;;43.30;21.23;101794.22;5029608;28;45290;-80
2022/07/11 08:18:21;;;;;;;;;2.00;2.00;;;;;43.35;21.09;101796.69;5019675;28;45722;-78
2022/07/11 08:20:47;;;;;;;;;2.50;2.50;;;;;43.58;21.51;101789.69;5013956;28;45359;-80
2022/07/11 08:23:12;;;;;;;;;2.00;2.00;;;;;43.84;20.80;101790.53;5027915;28;46231;-79
2022/07/11 08:25:39;;;;;;;;;2.00;2.00;;;;;44.10;20.92;101799.97;5030438;28;45474;-79
2022/07/11 08:28:05;;;;;;;;;1.50;1.50;;;;;44.43;20.00;101773.41;5028159;28;45542;-79
2022/07/11 08:30:31;;;;;;;;;1.00;1.00;;;;;44.81;20.16;101774.91;5019659;28;45821;-79
2022/07/11 08:32:56;;;;;;;;;3.00;2.00;;;;;45.01;19.46;101764.44;5028714;28;45804;-80
2022/07/11 08:35:22;;;;;;;;;1.75;1.75;;;;;45.27;19.24;101763.00;5027960;28;45784;-80
2022/07/11 08:37:47;;;;;;;;;1.00;1.00;;;;;45.41;19.38;101755.44;5022582;28;45416;-79
2022/07/11 08:40:13;;;;;;;;;2.67;1.33;;;;;45.84;19.38;101748.47;5030642;28;45640;-81
2022/07/11 08:42:45;;;;;;;;;2.50;1.25;;;;;46.38;19.24;101748.66;5016406;28;45418;-79
2022/07/11 08:45:15;;;;;;;;;1.67;1.33;;;;;46.58;18.38;101756.69;5028806;28;45423;-80
2022/07/11 08:47:41;;;;;;;;;1.00;1.00;;;;;46.77;18.82;101756.03;5028534;28;45345;-79
2022/07/11 08:50:09;;;;;;;;;3.00;1.00;;;;;46.85;18.30;101753.81;5022163;28;45758;-80
2022/07/11 08:52:36;;;;;;;;;3.67;2.00;;;;;46.96;18.29;101757.41;5036146;28;46464;-79
2022/07/11 08:55:06;;;;;;;;;1.00;1.00;;;;;47.29;18.13;101753.97;5032853;28;45669;-79
2022/07/11 08:57:35;;;;;;;;;2.67;2.33;;;;;47.78;17.99;101760.19;5025766;28;45392;-79
2022/07/11 09:00:00;;;;;;;;;1.00;1.00;;;;;47.80;17.73;101763.47;5014916;28;45597;-76
2022/07/11 09:02:28;;;;;;;;;2.00;2.00;;;;;47.92;17.62;101750.34;5023269;28;46202;-74
2022/07/11 09:04:54;;;;;;;;;1.67;1.67;;;;;47.70;17.60;101759.50;5029637;28;45461;-73
2022/07/11 09:07:19;;;;;;;;;2.00;2.00;;;;;47.54;17.92;101748.56;5026691;28;45668;-73
2022/07/11 09:09:45;;;;;;;;;3.00;1.00;;;;;48.00;17.59;101746.03;5030530;28;46372;-73
2022/07/11 09:12:14;;;;;;;;;1.33;1.00;;;;;48.14;17.20;101744.94;5023812;28;46157;-74
2022/07/11 09:14:45;;;;;;;;;1.00;1.00;;;;;47.76;17.44;101748.19;5029422;28;45740;-74
2022/07/11 09:17:10;;;;;;;;;1.00;1.00;;;;;47.70;17.63;101744.97;5029251;28;45502;-76
2022/07/11 09:19:39;;;;;;;;;1.00;1.00;;;;;47.73;17.19;101737.41;5029423;28;46261;-79
2022/07/11 09:27:56;;;;;;;;;1.00;1.00;;;;;47.48;18.06;101732.09;5025867;28;45663;-80
2022/07/11 09:30:29;;;;;;;;;5.67;1.67;;;;;47.71;17.57;101732.06;5040192;28;45422;-81
2022/07/11 09:33:06;;;;;;;;;1.33;1.33;;;;;47.20;17.64;101729.19;5034522;28;45429;-80
2022/07/11 09:35:39;;;;;;;;;2.33;1.00;;;;;47.23;18.05;101733.31;5023134;28;45668;-79
2022/07/11 09:38:06;;;;;;;;;1.00;1.00;;;;;47.46;17.42;101735.44;5018468;28;45404;-72
2022/07/11 09:40:33;;;;;;;;;1.33;1.00;;;;;47.35;17.54;101723.16;5034490;28;45579;-74
2022/07/11 09:43:00;;;;;;;;;4.00;2.33;;;;;47.07;17.89;101719.47;5031660;28;45684;-76
2022/07/11 09:45:27;;;;;;;;;5.00;4.00;;;;;46.89;17.72;101730.53;5001021;28;45711;-75
2022/07/11 09:47:55;;;;;;;;;1.33;1.33;;;;;46.78;18.23;101719.09;5025756;28;45318;-74
2022/07/11 09:50:29;;;;;;;;;1.00;1.00;;;;;46.39;18.55;101721.28;5030188;28;45365;-75
2022/07/11 09:53:07;;;;;;;;;1.67;1.67;;;;;46.36;18.66;101716.34;5034804;28;45845;-74
2022/07/11 09:55:33;;;;;;;;;2.00;2.00;;;;;46.17;18.32;101730.25;5025641;28;45481;-73
2022/07/11 09:58:02;;;;;;;;;1.00;1.00;;;;;46.26;18.68;101712.34;5030468;28;45437;-74
2022/07/11 10:00:28;;;;;;;;;1.67;1.67;;;;;46.35;18.25;101714.69;5026053;28;45919;-74
2022/07/11 10:02:55;;;;;;;;;1.00;1.00;;;;;46.43;18.05;101709.63;5030596;28;45702;-73
2022/07/11 10:05:21;;;;;;;;;0.67;0.67;;;;;46.59;18.38;101709.81;5025138;28;45389;-75
2022/07/11 10:07:47;;;;;;;;;1.00;1.00;;;;;46.50;17.94;101727.78;5023595;28;45734;-74
2022/07/11 10:10:12;;;;;;;;;0.33;0.33;;;;;46.11;18.00;101710.84;5017179;28;45761;-73
2022/07/11 10:12:37;;;;;;;;;1.67;1.67;;;;;46.22;18.01;101716.53;5017826;28;46732;-73
2022/07/11 10:15:07;;;;;;;;;4.00;2.00;;;;;46.33;18.37;101729.66;5019177;28;45883;-72
2022/07/11 10:17:54;;;;;;;;;1.33;1.00;;;;;45.86;18.46;101725.66;5016628;28;45728;-73
2022/07/11 10:20:51;;;;;;;;;3.00;1.00;;;;;45.45;19.01;101713.66;5020209;28;45429;-73
2022/07/11 10:23:16;;;;;;;;;1.67;1.67;;;;;45.47;18.68;101714.03;5017400;28;46225;-73
2022/07/11 10:26:11;;;;;;;;;1.00;1.00;;;;;45.88;18.80;101715.28;5016011;28;45372;-73
2022/07/11 10:28:39;;;;;;;;;1.33;1.33;;;;;46.12;18.27;101727.81;5013661;28;45705;-72
2022/07/11 10:31:18;;;;;;;;;1.67;1.67;;;;;45.77;18.45;101715.38;5019868;28;46607;-75
2022/07/11 10:34:01;;;;;;;;;1.00;1.00;;;;;45.64;18.53;101720.09;5024784;28;46485;-74
2022/07/11 10:36:29;;;;;;;;;0.67;0.33;;;;;45.99;18.44;101724.69;5036547;28;45428;-72
2022/07/11 10:39:24;;;;;;;;;1.00;1.00;;;;;46.30;18.31;101742.13;5025963;28;45416;-73
2022/07/11 10:41:50;;;;;;;;;0.00;0.00;;;;;46.14;18.02;101724.50;5033572;28;45769;-74
2022/07/11 10:44:17;;;;;;;;;1.00;1.00;;;;;45.94;18.29;101722.25;5032396;28;46036;-73
2022/07/11 10:46:43;;;;;;;;;0.00;0.00;;;;;45.80;18.27;101736.94;5032613;28;45486;-71
2022/07/11 10:49:14;;;;;;;;;2.00;2.00;;;;;45.53;18.36;101716.47;5022561;28;45447;-75
2022/07/11 10:51:50;;;;;;;;;1.00;1.00;;;;;45.20;18.42;101730.41;5030119;28;45385;-72
2022/07/11 10:54:21;;;;;;;;;1.33;1.33;;;;;44.80;18.75;101730.69;5032263;28;45805;-74
2022/07/11 10:57:17;;;;;;;;;1.00;1.00;;;;;44.38;19.26;101736.25;5026955;28;45761;-73
2022/07/11 10:59:59;;;;;;;;;1.67;1.00;;;;;44.24;18.93;101721.84;5021579;28;45378;-74
2022/07/11 11:02:46;;;;;;;;;0.75;0.75;;;;;44.26;19.39;101719.41;5022211;28;46383;-73
2022/07/11 11:05:12;;;;;;;;;1.25;1.25;;;;;44.02;19.44;101727.72;5019366;28;45711;-71
2022/07/11 11:07:47;;;;;;;;;2.00;2.00;;;;;43.82;19.50;101710.03;5019614;28;45844;-70
2022/07/11 11:10:18;;;;;;;;;1.00;1.00;;;;;43.80;20.11;101705.88;5020684;28;45602;-72
2022/07/11 11:13:09;;;;;;;;;1.00;1.00;;;;;44.12;19.48;101705.75;5017851;28;45513;-70
2022/07/11 11:15:46;;;;;;;;;1.00;1.00;;;;;43.99;19.45;101705.41;5016974;28;45769;-70
2022/07/11 11:18:24;;;;;;;;;1.00;1.00;;;;;43.43;20.02;101707.19;5020433;28;45510;-70
2022/07/11 11:21:16;;;;;;;;;1.25;0.00;;;;;42.56;20.87;101715.66;5016573;28;45834;-72
2022/07/11 11:23:44;;;;;;;;;1.00;1.00;;;;;42.18;21.09;101706.50;5015253;28;45686;-71
2022/07/11 11:26:09;;;;;;;;;2.00;0.75;;;;;41.69;21.74;101690.53;5022767;28;46185;-71
2022/07/11 11:28:36;;;;;;;;;2.00;2.00;;;;;41.06;21.95;101693.31;5019226;28;45558;-70
2022/07/11 11:31:04;;;;;;;;;1.25;1.25;;;;;40.28;22.67;101689.16;5015265;28;45438;-72
2022/07/11 11:33:32;;;;;;;;;0.25;0.25;;;;;39.21;23.54;101694.97;5017723;28;46215;-71
2022/07/11 11:36:09;;;;;;;;;0.00;0.00;;;;;38.26;24.51;101688.59;5018602;28;45562;-70
2022/07/11 11:38:40;;;;;;;;;1.00;1.00;;;;;37.42;25.77;101687.88;5015537;28;45736;-72
2022/07/11 11:41:06;;;;;;;;;1.00;1.00;;;;;36.46;26.93;101680.41;5019072;28;45498;-71
2022/07/11 11:43:33;;;;;;;;;0.50;0.50;;;;;35.55;28.86;101693.09;5019323;28;45801;-71
2022/07/11 11:45:58;;;;;;;;;1.00;1.00;;;;;34.77;29.85;101684.31;5014947;28;46854;-71
2022/07/11 11:48:37;;;;;;;;;1.00;1.00;;;;;34.17;31.09;101681.66;5020578;28;45345;-71
2022/07/11 11:51:12;;;;;;;;;1.00;1.00;;;;;33.64;32.23;101671.81;5018855;28;45882;-72
2022/07/11 11:53:39;;;;;;;;;4.00;1.00;;;;;33.26;33.09;101670.69;5021848;28;46131;-71
2022/07/11 11:56:28;;;;;;;;;1.00;1.00;;;;;32.94;34.41;101674.97;5018401;28;45435;-71
2022/07/11 11:59:14;;;;;;;;;2.00;1.00;;;;;32.47;36.27;101668.03;5024257;28;45406;-73
2022/07/11 12:01:43;;;;;;;;;1.00;1.00;;;;;31.96;37.34;101670.53;5023381;28;45408;-72
2022/07/11 12:04:11;;;;;;;;;1.00;1.00;;;;;31.55;38.42;101670.94;5028754;28;45802;-73
2022/07/11 12:06:49;;;;;;;;;1.50;1.50;;;;;31.17;40.26;101669.50;5036257;28;46102;-73
2022/07/11 12:09:16;;;;;;;;;1.00;1.00;;;;;30.87;42.48;101673.97;5034144;28;45704;-72
2022/07/11 12:12:43;;;;;;;;;0.25;0.25;;;;;30.55;43.63;101662.63;5018272;28;45432;-71
2022/07/11 12:14:35;;;;;;;;;3.67;1.00;;;;;30.34;45.37;101659.44;5029084;28;45419;-72
2022/07/11 12:17:01;;;;;;;;;1.00;1.00;;;;;30.05;47.63;101662.72;5033321;28;45750;-71
2022/07/11 12:19:33;;;;;;;;;2.25;1.00;;;;;29.93;49.29;101663.28;5036539;28;45342;-73
2022/07/11 12:22:04;;;;;;;;;1.00;1.00;;;;;29.72;50.99;101658.06;5021383;28;45637;-71
2022/07/11 12:24:30;;;;;;;;;2.00;2.00;;;;;29.58;52.30;101672.22;5018441;28;45703;-73
2022/07/11 12:26:57;;;;;;;;;2.33;2.33;;;;;29.48;53.40;101663.13;5017752;28;46040;-72
2022/07/11 12:29:24;;;;;;;;;3.33;2.00;;;;;29.42;54.32;101659.56;5017970;28;45361;-72
2022/07/11 12:32:10;;;;;;;;;2.50;1.00;;;;;29.33;54.92;101667.94;5020453;28;45667;-72
2022/07/11 12:34:35;;;;;;;;;1.75;1.00;;;;;29.26;55.93;101664.69;5022590;28;45907;-72
2022/07/11 12:37:07;;;;;;;;;3.00;1.00;;;;;29.25;55.91;101654.53;5020966;28;46453;-73
2022/07/11 12:39:40;;;;;;;;;1.00;1.00;;;;;29.19;56.20;101670.75;5032068;28;45815;-71
2022/07/11 12:42:25;;;;;;;;;2.00;1.00;;;;;29.11;55.16;101665.81;5033918;28;45339;-73
2022/07/11 12:45:08;;;;;;;;;2.00;2.00;;;;;29.06;56.60;101655.47;5025345;28;46013;-72
2022/07/11 12:47:45;;;;;;;;;0.25;0.25;;;;;29.06;56.96;101643.34;5025633;28;46559;-72
2022/07/11 12:50:12;;;;;;;;;4.50;2.75;;;;;29.05;57.13;101642.47;5026871;28;45448;-73
2022/07/11 12:52:40;;;;;;;;;1.00;1.00;;;;;29.06;57.51;101646.16;5029748;28;45545;-73
2022/07/11 12:55:07;;;;;;;;;2.75;2.75;;;;;29.06;57.89;101640.50;5036421;28;45535;-73
2022/07/11 12:57:33;;;;;;;;;2.00;1.67;;;;;29.09;58.58;101641.84;5037943;28;46957;-73